Time;durP1;ratioP1;P1;durP2;ratioP2;P2;SDS_P1;SDS_P2;PMS_P1;PMS_P2;Temp;Humidity;BMP_temperature;BMP_pressure;BME280_temperature;BME280_humidity;BME280_pressure;Samples;Min_cycle;Max_cycle;Signal;HPM_P1;HPM_P2
2023/04/15 00:00:27;;;;;;;0.50;0.50;;;3.70;99.90;;;;;;5106576;28;20035;-76
2023/04/15 00:03:01;;;;;;;0.40;0.40;;;3.80;99.90;;;;;;5099611;28;20607;-76
2023/04/15 00:05:35;;;;;;;0.55;0.55;;;3.70;99.90;;;;;;5104162;28;20248;-76
2023/04/15 00:08:09;;;;;;;0.43;0.43;;;3.70;99.90;;;;;;5112451;28;20038;-75
2023/04/15 00:10:45;;;;;;;0.60;0.60;;;3.70;99.90;;;;;;5112351;28;20041;-75
2023/04/15 00:13:16;;;;;;;0.52;0.52;;;3.70;99.90;;;;;;5102347;28;20046;-75
2023/04/15 00:15:52;;;;;;;0.40;0.40;;;3.70;99.90;;;;;;5094798;28;20112;-75
2023/04/15 00:18:26;;;;;;;0.50;0.50;;;3.80;99.90;;;;;;5112290;28;20055;-75
2023/04/15 00:21:06;;;;;;;0.50;0.50;;;3.80;99.90;;;;;;5113503;28;20031;-75
2023/04/15 00:23:38;;;;;;;0.43;0.43;;;3.70;99.90;;;;;;5129333;28;20041;-75
2023/04/15 00:26:13;;;;;;;0.47;0.47;;;3.60;99.90;;;;;;5096921;28;20042;-75
2023/04/15 00:28:51;;;;;;;0.40;0.40;;;3.60;99.90;;;;;;5109259;28;20393;-76
2023/04/15 00:31:26;;;;;;;0.40;0.40;;;3.60;99.90;;;;;;5095044;28;20411;-76
2023/04/15 00:34:02;;;;;;;0.30;0.30;;;3.50;99.90;;;;;;5096153;28;20050;-75
2023/04/15 00:36:36;;;;;;;0.45;0.45;;;3.50;99.90;;;;;;5111881;28;20527;-76
2023/04/15 00:39:08;;;;;;;0.50;0.50;;;3.40;99.90;;;;;;5111121;28;20365;-75
2023/04/15 00:41:39;;;;;;;0.30;0.30;;;3.50;99.90;;;;;;5127263;28;20027;-75
2023/04/15 00:44:14;;;;;;;0.40;0.40;;;3.50;99.90;;;;;;5128810;28;20514;-76
2023/04/15 00:46:47;;;;;;;0.40;0.40;;;3.40;99.90;;;;;;5108896;28;20487;-75
2023/04/15 00:49:21;;;;;;;0.50;0.50;;;3.40;99.90;;;;;;5111685;28;20041;-76
2023/04/15 00:51:53;;;;;;;;;;;3.40;99.90;;;;;;5096424;28;20039;-75
2023/04/15 00:54:26;;;;;;;0.30;0.30;;;3.40;99.90;;;;;;5091009;29;19993;-75
2023/04/15 00:57:00;;;;;;;0.45;0.45;;;3.50;99.90;;;;;;5098286;28;20038;-75
2023/04/15 00:59:34;;;;;;;0.50;0.50;;;3.50;99.90;;;;;;5075629;29;20343;-75
2023/04/15 01:02:08;;;;;;;0.30;0.30;;;3.50;99.90;;;;;;5144269;23;20389;-75
2023/04/15 01:04:39;;;;;;;0.40;0.40;;;3.40;99.90;;;;;;5103519;28;20056;-73
2023/04/15 01:07:13;;;;;;;0.40;0.40;;;3.50;99.90;;;;;;5210464;28;20040;-76
2023/04/15 01:09:47;;;;;;;0.50;0.50;;;3.50;99.90;;;;;;5228086;28;20238;-73
2023/04/15 01:12:19;;;;;;;;;;;3.50;99.90;;;;;;5211069;28;20025;-75
2023/04/15 01:14:52;;;;;;;0.40;0.40;;;3.50;99.90;;;;;;5211315;28;19909;-74
2023/04/15 01:17:28;;;;;;;0.40;0.40;;;3.50;99.90;;;;;;5194760;28;20258;-74
2023/04/15 01:20:02;;;;;;;0.30;0.30;;;3.60;99.90;;;;;;5173347;28;20037;-74
2023/04/15 01:22:33;;;;;;;1.20;1.20;;;3.70;99.90;;;;;;5190049;28;20210;-75
2023/04/15 01:25:16;;;;;;;0.50;0.50;;;3.70;99.90;;;;;;5185612;28;20273;-75
2023/04/15 01:27:50;;;;;;;0.40;0.40;;;3.70;99.90;;;;;;5209383;28;20451;-74
2023/04/15 01:30:21;;;;;;;0.55;0.55;;;3.70;99.90;;;;;;5204841;28;20043;-75
2023/04/15 01:33:00;;;;;;;0.30;0.30;;;3.80;99.90;;;;;;5209553;28;20025;-74
2023/04/15 01:35:31;;;;;;;0.40;0.40;;;3.80;99.90;;;;;;5192905;28;20344;-76
2023/04/15 01:38:13;;;;;;;0.50;0.50;;;3.80;99.90;;;;;;5210385;28;20047;-75
2023/04/15 01:40:49;;;;;;;0.40;0.40;;;3.90;99.90;;;;;;5227388;28;20327;-74
2023/04/15 01:43:21;;;;;;;0.47;0.47;;;3.80;99.90;;;;;;5209910;28;20352;-74
2023/04/15 01:45:53;;;;;;;0.38;0.38;;;3.80;99.90;;;;;;5206661;28;20033;-75
2023/04/15 01:48:26;;;;;;;0.45;0.45;;;3.70;99.90;;;;;;5216618;28;20239;-74
2023/04/15 01:50:57;;;;;;;0.50;0.50;;;3.70;99.90;;;;;;5216612;28;20024;-74
2023/04/15 01:53:31;;;;;;;0.30;0.30;;;3.80;99.90;;;;;;5218027;28;20036;-74
2023/04/15 01:56:03;;;;;;;0.45;0.45;;;3.80;99.90;;;;;;5216056;28;20042;-74
2023/04/15 01:58:36;;;;;;;0.40;0.40;;;3.80;99.90;;;;;;5232469;28;20039;-74
2023/04/15 02:01:10;;;;;;;0.55;0.55;;;3.80;99.90;;;;;;5213694;28;20059;-74
2023/04/15 02:03:46;;;;;;;0.60;0.60;;;3.80;99.90;;;;;;5219940;28;20313;-73
2023/04/15 02:06:23;;;;;;;0.30;0.30;;;3.90;99.90;;;;;;5194295;28;20060;-75
2023/04/15 02:08:57;;;;;;;0.40;0.40;;;4.00;99.90;;;;;;5217230;28;20029;-75
2023/04/15 02:11:34;;;;;;;0.40;0.40;;;3.90;99.90;;;;;;5217031;28;20033;-75
2023/04/15 02:14:11;;;;;;;0.40;0.40;;;3.90;99.90;;;;;;5217218;28;20032;-74
2023/04/15 02:16:42;;;;;;;0.38;0.38;;;3.90;99.90;;;;;;5198471;28;20395;-73
2023/04/15 02:19:14;;;;;;;0.40;0.40;;;4.00;99.90;;;;;;5214736;28;20469;-74
2023/04/15 02:21:46;;;;;;;0.40;0.40;;;4.00;99.90;;;;;;5204264;28;20407;-74
2023/04/15 02:24:22;;;;;;;0.45;0.45;;;4.00;99.90;;;;;;5194866;28;20031;-74
2023/04/15 02:26:54;;;;;;;0.40;0.40;;;4.10;99.90;;;;;;5196256;28;20044;-74
2023/04/15 02:29:26;;;;;;;0.40;0.40;;;4.10;99.90;;;;;;5195320;28;20348;-73
2023/04/15 02:31:57;;;;;;;0.40;0.40;;;4.10;99.90;;;;;;5208354;28;20140;-75
2023/04/15 02:34:30;;;;;;;0.40;0.40;;;4.10;99.90;;;;;;5218800;28;20035;-74
2023/04/15 02:37:02;;;;;;;0.30;0.30;;;4.00;99.90;;;;;;5217500;28;20056;-74
2023/04/15 02:39:33;;;;;;;0.40;0.40;;;4.00;99.90;;;;;;5200098;28;20039;-75
2023/04/15 02:42:07;;;;;;;0.38;0.38;;;4.00;99.90;;;;;;5189027;28;20036;-75
2023/04/15 02:44:38;;;;;;;0.73;0.73;;;4.10;99.90;;;;;;5179174;28;20038;-75
2023/04/15 02:47:10;;;;;;;0.40;0.40;;;4.20;99.90;;;;;;5173618;28;20439;-74
2023/04/15 02:49:41;;;;;;;0.55;0.55;;;4.20;99.90;;;;;;5195769;28;20045;-74
2023/04/15 02:52:16;;;;;;;0.60;0.60;;;4.20;99.90;;;;;;5200544;28;20028;-75
2023/04/15 02:54:53;;;;;;;0.47;0.47;;;4.20;99.90;;;;;;5180792;28;20041;-75
2023/04/15 02:57:35;;;;;;;0.45;0.45;;;4.30;99.90;;;;;;5178294;28;20047;-75
2023/04/15 03:00:11;;;;;;;0.38;0.38;;;4.40;99.90;;;;;;5175876;28;20033;-75
2023/04/15 03:02:44;;;;;;;0.30;0.30;;;4.50;99.90;;;;;;5175153;28;20045;-74
2023/04/15 03:05:18;;;;;;;0.50;0.50;;;4.50;99.90;;;;;;5161902;28;20044;-74
2023/04/15 03:07:52;;;;;;;0.50;0.50;;;4.50;99.90;;;;;;5153282;28;20068;-73
2023/04/15 03:10:24;;;;;;;0.43;0.43;;;4.50;99.90;;;;;;5192983;28;20028;-73
2023/04/15 03:13:00;;;;;;;0.40;0.40;;;4.40;99.90;;;;;;5164292;28;20052;-74
2023/04/15 03:15:35;;;;;;;0.50;0.50;;;4.40;99.90;;;;;;5187254;28;20696;-73
2023/04/15 03:18:11;;;;;;;1.42;1.38;;;4.40;99.90;;;;;;5173365;28;20513;-75
2023/04/15 03:20:45;;;;;;;0.40;0.40;;;4.30;99.90;;;;;;5172803;28;20029;-73
2023/04/15 03:23:16;;;;;;;0.68;0.68;;;4.30;99.90;;;;;;5218328;28;20033;-74
2023/04/15 03:25:47;;;;;;;0.50;0.50;;;4.30;99.90;;;;;;5192633;28;20041;-74
2023/04/15 03:28:21;;;;;;;0.50;0.50;;;4.30;99.90;;;;;;5160357;28;20444;-74
2023/04/15 03:30:52;;;;;;;0.50;0.50;;;4.30;99.90;;;;;;5190935;28;20552;-73
2023/04/15 03:33:23;;;;;;;0.30;0.30;;;4.20;99.90;;;;;;5192447;28;20029;-74
2023/04/15 03:35:57;;;;;;;1.95;1.75;;;4.30;99.90;;;;;;5173980;28;20022;-74
2023/04/15 03:38:34;;;;;;;0.40;0.40;;;4.30;99.90;;;;;;5162783;28;20036;-75
2023/04/15 03:41:08;;;;;;;0.55;0.55;;;4.40;99.90;;;;;;5192341;28;20858;-75
2023/04/15 03:43:41;;;;;;;0.50;0.50;;;4.40;99.90;;;;;;5175809;28;20037;-73
2023/04/15 03:46:16;;;;;;;0.30;0.30;;;4.40;99.90;;;;;;5175178;28;20025;-74
2023/04/15 03:48:47;;;;;;;0.40;0.40;;;4.40;99.90;;;;;;5192570;28;20033;-73
2023/04/15 03:51:19;;;;;;;0.35;0.35;;;4.50;99.90;;;;;;5192550;28;20067;-75
2023/04/15 03:53:50;;;;;;;0.40;0.40;;;4.50;99.90;;;;;;5175455;28;20038;-76
2023/04/15 03:56:26;;;;;;;0.40;0.40;;;4.60;99.90;;;;;;5174013;28;20036;-76
2023/04/15 03:59:00;;;;;;;0.57;0.57;;;4.60;99.90;;;;;;5175454;28;20033;-74
2023/04/15 04:01:31;;;;;;;0.40;0.40;;;4.60;99.90;;;;;;5180082;28;20405;-75
2023/04/15 04:04:02;;;;;;;0.43;0.43;;;4.70;99.90;;;;;;5194349;28;20268;-74
2023/04/15 04:06:37;;;;;;;0.60;0.60;;;4.70;99.90;;;;;;5202814;28;20053;-74
2023/04/15 04:09:11;;;;;;;1.02;1.02;;;4.80;99.90;;;;;;5179390;28;20037;-74
2023/04/15 04:11:45;;;;;;;0.40;0.40;;;4.70;99.90;;;;;;5192840;28;20048;-75
2023/04/15 04:14:18;;;;;;;0.50;0.50;;;4.70;99.90;;;;;;5189894;28;20039;-73
2023/04/15 04:16:50;;;;;;;0.93;0.93;;;4.60;99.90;;;;;;5168864;28;20037;-74
2023/04/15 04:19:23;;;;;;;0.40;0.40;;;4.70;99.90;;;;;;5171526;28;20026;-74
2023/04/15 04:21:58;;;;;;;0.40;0.40;;;4.70;99.90;;;;;;5191868;28;20050;-74
2023/04/15 04:24:34;;;;;;;0.45;0.45;;;4.70;99.90;;;;;;5177242;28;20046;-73
2023/04/15 04:27:05;;;;;;;0.60;0.60;;;4.60;99.90;;;;;;5191540;28;20044;-74
2023/04/15 04:29:39;;;;;;;0.50;0.50;;;4.70;99.90;;;;;;5201141;28;20042;-74
2023/04/15 04:32:10;;;;;;;0.30;0.30;;;4.70;99.90;;;;;;5189310;28;20025;-72
2023/04/15 04:34:44;;;;;;;0.60;0.60;;;4.60;99.90;;;;;;5195529;28;20284;-73
2023/04/15 04:37:17;;;;;;;1.52;1.48;;;4.50;99.90;;;;;;5195830;28;20261;-74
2023/04/15 04:39:50;;;;;;;0.40;0.40;;;4.50;99.90;;;;;;5212275;28;20605;-75
2023/04/15 04:42:27;;;;;;;0.40;0.40;;;4.60;99.90;;;;;;5180184;28;20040;-74
2023/04/15 04:44:58;;;;;;;0.50;0.50;;;4.50;99.90;;;;;;5175137;28;20360;-72
2023/04/15 04:47:29;;;;;;;0.50;0.50;;;4.50;99.90;;;;;;5191181;28;20381;-73
2023/04/15 04:50:06;;;;;;;0.50;0.50;;;4.60;99.90;;;;;;5171232;28;20044;-76
2023/04/15 04:52:37;;;;;;;0.40;0.40;;;4.70;99.90;;;;;;5172781;28;20067;-73
2023/04/15 04:55:12;;;;;;;0.65;0.65;;;4.80;99.90;;;;;;5190585;28;20542;-74
2023/04/15 04:57:43;;;;;;;0.60;0.60;;;4.90;99.90;;;;;;5169913;28;20034;-73
2023/04/15 05:00:17;;;;;;;0.40;0.40;;;4.90;99.90;;;;;;5155488;28;20138;-73
2023/04/15 05:02:48;;;;;;;0.70;0.70;;;4.80;99.90;;;;;;5212689;28;20040;-74
2023/04/15 05:05:19;;;;;;;0.40;0.40;;;4.90;99.90;;;;;;5185534;28;20636;-74
2023/04/15 05:07:52;;;;;;;0.60;0.60;;;5.10;99.90;;;;;;5184096;28;20030;-74
2023/04/15 05:10:26;;;;;;;0.50;0.50;;;5.10;99.90;;;;;;5153782;28;20052;-75
2023/04/15 05:13:00;;;;;;;0.50;0.50;;;5.20;99.90;;;;;;5153121;28;20044;-74
2023/04/15 05:15:33;;;;;;;0.70;0.70;;;5.20;99.90;;;;;;5153307;28;20033;-74
2023/04/15 05:18:05;;;;;;;0.40;0.40;;;5.20;99.90;;;;;;5163495;28;20053;-75
2023/04/15 05:20:38;;;;;;;0.70;0.70;;;5.20;99.90;;;;;;5175291;28;20047;-73
2023/04/15 05:23:14;;;;;;;0.60;0.60;;;5.20;99.90;;;;;;5184850;28;20028;-74
2023/04/15 05:25:48;;;;;;;0.30;0.30;;;5.30;99.90;;;;;;5187571;28;20275;-74
2023/04/15 05:28:22;;;;;;;0.52;0.52;;;5.30;99.90;;;;;;5165285;28;20043;-73
2023/04/15 05:30:53;;;;;;;0.50;0.50;;;5.40;99.90;;;;;;5169513;28;20045;-72
2023/04/15 05:33:28;;;;;;;0.98;0.98;;;5.40;99.90;;;;;;5172889;28;20033;-74
2023/04/15 05:36:01;;;;;;;;;;;5.50;99.90;;;;;;5185885;28;20036;-75
2023/04/15 05:38:33;;;;;;;0.80;0.80;;;5.60;99.90;;;;;;5188813;28;19922;-75
2023/04/15 05:41:04;;;;;;;0.82;0.82;;;5.70;99.90;;;;;;5182955;28;20016;-76
2023/04/15 05:43:38;;;;;;;0.70;0.70;;;5.70;99.90;;;;;;5190935;28;20033;-74
2023/04/15 05:46:11;;;;;;;0.40;0.40;;;5.90;99.90;;;;;;5180662;28;20063;-74
2023/04/15 05:48:42;;;;;;;0.57;0.57;;;6.00;99.90;;;;;;5149302;28;20033;-74
2023/04/15 05:51:16;;;;;;;0.60;0.60;;;6.10;99.90;;;;;;5180341;28;20379;-73
2023/04/15 05:53:50;;;;;;;0.50;0.50;;;6.20;99.90;;;;;;5174626;28;20445;-73
2023/04/15 05:56:21;;;;;;;0.40;0.40;;;6.30;99.90;;;;;;5190903;28;20342;-76
2023/04/15 05:58:52;;;;;;;1.52;0.93;;;6.30;99.90;;;;;;5185751;28;20056;-75
2023/04/15 06:01:27;;;;;;;0.88;0.88;;;6.40;99.90;;;;;;5184410;28;20037;-76
2023/04/15 06:04:00;;;;;;;;;;;6.40;99.90;;;;;;5156874;28;20046;-72
2023/04/15 06:06:34;;;;;;;0.90;0.90;;;6.60;99.90;;;;;;5178945;28;20259;-73
2023/04/15 06:09:07;;;;;;;0.80;0.80;;;6.60;99.90;;;;;;5157194;28;20044;-72
2023/04/15 06:11:40;;;;;;;0.90;0.90;;;6.60;99.90;;;;;;5180484;28;20036;-72
2023/04/15 06:14:11;;;;;;;1.15;1.13;;;6.60;99.90;;;;;;5139028;28;20049;-74
2023/04/15 06:16:51;;;;;;;1.25;1.20;;;6.60;99.90;;;;;;5170493;28;20547;-74
2023/04/15 06:19:25;;;;;;;0.60;0.60;;;6.80;99.90;;;;;;5195085;28;20037;-73
2023/04/15 06:22:03;;;;;;;0.90;0.90;;;6.90;99.90;;;;;;5185243;28;20036;-74
2023/04/15 06:24:35;;;;;;;1.77;1.63;;;6.70;99.90;;;;;;5169883;28;20034;-74
2023/04/15 06:27:07;;;;;;;0.93;0.93;;;6.70;99.90;;;;;;5162910;28;20030;-73
2023/04/15 06:29:38;;;;;;;0.90;0.90;;;6.90;99.90;;;;;;5203496;28;20036;-74
2023/04/15 06:32:10;;;;;;;0.70;0.70;;;7.00;99.90;;;;;;5182491;28;20029;-73
2023/04/15 06:34:44;;;;;;;0.80;0.80;;;7.00;99.90;;;;;;5191441;28;20477;-74
2023/04/15 06:37:16;;;;;;;1.33;1.20;;;7.00;99.90;;;;;;5174202;28;20588;-73
2023/04/15 06:39:49;;;;;;;0.70;0.70;;;7.00;99.90;;;;;;5195718;28;20026;-73
2023/04/15 06:42:22;;;;;;;0.97;0.97;;;7.10;99.90;;;;;;5194914;28;20017;-73
2023/04/15 06:44:56;;;;;;;0.73;0.73;;;7.30;99.90;;;;;;5184673;28;20446;-73
2023/04/15 06:47:30;;;;;;;1.00;1.00;;;7.40;99.90;;;;;;5168497;28;20047;-75
2023/04/15 06:50:01;;;;;;;0.95;0.95;;;7.50;99.90;;;;;;5176990;28;20036;-74
2023/04/15 06:52:35;;;;;;;0.40;0.40;;;7.50;99.90;;;;;;5195723;28;20029;-76
2023/04/15 06:55:09;;;;;;;0.82;0.80;;;7.60;99.90;;;;;;5193531;28;20029;-73
2023/04/15 06:57:42;;;;;;;0.73;0.73;;;7.60;99.90;;;;;;5183243;28;20033;-73
2023/04/15 07:00:14;;;;;;;0.68;0.68;;;7.60;99.90;;;;;;5156873;28;20026;-74
2023/04/15 07:02:45;;;;;;;0.55;0.55;;;7.60;99.90;;;;;;5195981;28;20037;-71
2023/04/15 07:05:17;;;;;;;0.60;0.60;;;7.70;99.90;;;;;;5173252;28;20068;-74
2023/04/15 07:07:52;;;;;;;0.70;0.70;;;7.60;99.90;;;;;;5189824;28;20045;-75
2023/04/15 07:10:32;;;;;;;1.08;1.08;;;7.70;99.90;;;;;;5181652;28;20034;-74
2023/04/15 07:13:07;;;;;;;1.50;0.90;;;7.70;99.90;;;;;;5187014;28;20034;-75
2023/04/15 07:15:38;;;;;;;0.32;0.32;;;7.80;99.90;;;;;;5189235;28;20348;-72
2023/04/15 07:18:10;;;;;;;1.15;1.10;;;7.80;99.90;;;;;;5190592;28;20045;-74
2023/04/15 07:20:41;;;;;;;1.13;1.13;;;7.90;99.90;;;;;;5188430;28;20036;-74
2023/04/15 07:23:13;;;;;;;0.98;0.98;;;8.00;99.90;;;;;;5184887;28;20349;-74
2023/04/15 07:25:44;;;;;;;0.80;0.80;;;8.10;99.90;;;;;;5193215;28;20095;-73
2023/04/15 07:28:21;;;;;;;0.50;0.50;;;8.20;99.90;;;;;;5208381;28;20029;-72
2023/04/15 07:30:56;;;;;;;0.77;0.77;;;8.40;99.90;;;;;;5190147;28;20426;-75
2023/04/15 07:33:27;;;;;;;0.63;0.63;;;8.30;99.90;;;;;;5175599;28;20052;-76
2023/04/15 07:36:01;;;;;;;0.60;0.60;;;8.00;99.90;;;;;;5195352;28;20033;-73
2023/04/15 07:38:33;;;;;;;1.45;1.35;;;8.10;99.90;;;;;;5159810;28;20045;-74
2023/04/15 07:41:04;;;;;;;0.70;0.70;;;8.00;99.90;;;;;;5193801;28;20028;-74
2023/04/15 07:43:36;;;;;;;0.50;0.50;;;8.10;99.90;;;;;;5192176;28;20064;-72
2023/04/15 07:46:12;;;;;;;0.65;0.65;;;8.10;99.90;;;;;;5191589;28;20037;-72
2023/04/15 07:48:46;;;;;;;0.88;0.88;;;7.90;99.90;;;;;;5192780;28;20029;-73
2023/04/15 07:51:20;;;;;;;0.82;0.82;;;8.00;99.90;;;;;;5177159;28;20034;-75
2023/04/15 07:53:52;;;;;;;0.60;0.60;;;8.10;99.90;;;;;;5189456;28;20254;-76
2023/04/15 07:56:26;;;;;;;0.73;0.73;;;7.80;99.90;;;;;;5174673;28;20026;-73
2023/04/15 07:59:01;;;;;;;1.70;0.82;;;7.80;99.90;;;;;;5176450;28;20345;-76
2023/04/15 08:01:37;;;;;;;0.68;0.68;;;7.60;99.90;;;;;;5157050;28;20046;-73
2023/04/15 08:04:11;;;;;;;0.73;0.73;;;7.50;99.90;;;;;;5167135;28;20049;-73
2023/04/15 08:06:42;;;;;;;0.63;0.63;;;7.50;99.90;;;;;;5196858;28;20034;-77
2023/04/15 08:09:14;;;;;;;0.80;0.80;;;7.40;99.90;;;;;;5169490;28;20285;-76
2023/04/15 08:11:50;;;;;;;0.93;0.93;;;7.40;99.90;;;;;;5188687;28;20045;-75
2023/04/15 08:14:26;;;;;;;0.50;0.50;;;7.40;99.90;;;;;;5171693;28;20032;-74
2023/04/15 08:16:58;;;;;;;0.55;0.55;;;7.50;99.90;;;;;;5178501;28;20036;-74
2023/04/15 08:19:35;;;;;;;0.52;0.52;;;7.40;99.90;;;;;;5182323;28;20022;-77
2023/04/15 08:22:07;;;;;;;0.65;0.65;;;7.40;99.90;;;;;;5198207;28;20060;-75
2023/04/15 08:24:45;;;;;;;0.68;0.65;;;7.50;99.90;;;;;;5195609;28;20139;-75
2023/04/15 08:27:18;;;;;;;0.70;0.70;;;7.60;99.90;;;;;;5196715;28;20037;-72
2023/04/15 08:29:51;;;;;;;1.00;1.00;;;7.60;99.90;;;;;;5174884;28;20471;-77
2023/04/15 08:32:26;;;;;;;0.80;0.80;;;7.50;99.90;;;;;;5189268;28;20462;-76
2023/04/15 08:34:57;;;;;;;;;;;7.40;99.90;;;;;;5186158;28;20270;-76
2023/04/15 08:37:32;;;;;;;1.27;1.25;;;7.40;99.90;;;;;;5188308;28;19917;-75
2023/04/15 08:40:08;;;;;;;0.63;0.63;;;7.30;99.90;;;;;;5184850;28;20171;-73
2023/04/15 08:42:48;;;;;;;0.63;0.63;;;7.30;99.90;;;;;;5186084;28;20033;-75
2023/04/15 08:45:22;;;;;;;0.60;0.60;;;7.40;99.90;;;;;;5184855;28;20037;-74
2023/04/15 08:47:57;;;;;;;0.55;0.55;;;7.70;99.90;;;;;;5185824;28;20034;-77
2023/04/15 08:50:31;;;;;;;0.55;0.55;;;7.80;99.90;;;;;;5197997;28;20037;-75
2023/04/15 08:53:02;;;;;;;;;;;7.70;99.90;;;;;;5158615;28;20045;-75
2023/04/15 08:55:43;;;;;;;0.60;0.60;;;8.00;99.90;;;;;;5190549;28;19936;-76
2023/04/15 08:58:15;;;;;;;0.50;0.50;;;8.20;99.90;;;;;;5190655;28;20097;-74
2023/04/15 09:00:47;;;;;;;1.00;0.98;;;8.20;99.90;;;;;;5175143;28;20031;-76
2023/04/15 09:03:21;;;;;;;0.77;0.77;;;8.40;99.90;;;;;;5191983;28;20067;-74
2023/04/15 09:05:53;;;;;;;1.05;1.05;;;8.40;99.90;;;;;;5184749;28;20063;-72
2023/04/15 09:08:24;;;;;;;0.60;0.60;;;8.20;99.90;;;;;;5171843;28;20033;-75
2023/04/15 09:10:57;;;;;;;0.60;0.60;;;8.10;99.90;;;;;;5185987;28;20342;-74
2023/04/15 09:13:29;;;;;;;0.70;0.70;;;8.20;99.90;;;;;;5173076;28;20342;-74
2023/04/15 09:16:03;;;;;;;0.93;0.93;;;8.20;99.90;;;;;;5172316;28;20502;-75
2023/04/15 09:18:36;;;;;;;0.50;0.50;;;8.10;99.90;;;;;;5191748;28;20036;-74
2023/04/15 09:21:15;;;;;;;0.50;0.50;;;8.00;99.90;;;;;;5190980;28;20037;-73
2023/04/15 09:24:00;;;;;;;0.70;0.70;;;8.10;99.90;;;;;;5191447;28;20033;-72
2023/04/15 09:26:39;;;;;;;0.73;0.50;;;8.40;99.90;;;;;;5174058;28;20624;-72
2023/04/15 09:29:13;;;;;;;0.63;0.63;;;8.40;99.90;;;;;;5173860;28;20041;-75
2023/04/15 09:31:45;;;;;;;0.60;0.60;;;8.30;99.90;;;;;;5158223;28;20045;-75
2023/04/15 09:34:16;;;;;;;0.50;0.50;;;8.20;99.90;;;;;;5210110;28;20397;-71
2023/04/15 09:36:52;;;;;;;0.60;0.60;;;8.20;99.90;;;;;;5197349;28;20033;-78
2023/04/15 09:39:23;;;;;;;0.68;0.68;;;8.40;99.90;;;;;;5186388;28;20403;-73
2023/04/15 09:42:13;;;;;;;0.40;0.40;;;8.10;99.90;;;;;;5187266;28;20036;-73
2023/04/15 09:44:46;;;;;;;0.50;0.50;;;8.00;99.90;;;;;;5170558;28;20048;-72
2023/04/15 09:47:33;;;;;;;0.40;0.40;;;8.30;99.90;;;;;;5153966;28;20038;-74
2023/04/15 09:50:08;;;;;;;0.60;0.60;;;8.40;99.90;;;;;;5186842;28;20045;-73
2023/04/15 09:52:46;;;;;;;0.75;0.75;;;8.40;99.90;;;;;;5154393;28;20049;-76
2023/04/15 09:55:21;;;;;;;1.00;1.00;;;8.20;99.90;;;;;;5137655;28;20261;-74
2023/04/15 09:57:57;;;;;;;0.43;0.43;;;8.10;99.90;;;;;;5167133;28;20037;-73
2023/04/15 10:00:32;;;;;;;0.50;0.50;;;7.90;99.90;;;;;;5191492;28;20032;-74
2023/04/15 10:03:06;;;;;;;0.63;0.63;;;8.30;99.90;;;;;;5211849;28;20040;-72
2023/04/15 10:05:38;;;;;;;0.65;0.65;;;8.30;99.90;;;;;;5141358;28;20054;-75
2023/04/15 10:08:10;;;;;;;0.60;0.60;;;7.90;99.90;;;;;;5071587;29;20050;-75
2023/04/15 10:10:46;;;;;;;0.50;0.50;;;8.00;99.90;;;;;;5075103;29;20039;-75
2023/04/15 10:13:23;;;;;;;0.77;0.77;;;8.00;99.90;;;;;;5129348;28;20029;-75
2023/04/15 10:16:11;;;;;;;0.90;0.90;;;8.30;99.90;;;;;;5127371;28;20268;-75
2023/04/15 10:18:49;;;;;;;0.63;0.63;;;8.60;99.90;;;;;;5110339;29;20502;-71
2023/04/15 10:21:22;;;;;;;0.60;0.60;;;8.70;99.90;;;;;;5112343;29;20037;-71
2023/04/15 10:24:02;;;;;;;0.80;0.55;;;9.00;99.90;;;;;;5156699;28;20046;-76
2023/04/15 10:26:35;;;;;;;0.50;0.50;;;8.90;99.90;;;;;;5109560;28;20721;-75
2023/04/15 10:29:08;;;;;;;0.70;0.70;;;9.00;99.90;;;;;;5094382;28;20453;-72
2023/04/15 10:31:42;;;;;;;0.60;0.60;;;9.20;99.90;;;;;;5100957;29;20509;-75
2023/04/15 10:34:14;;;;;;;;;;;9.50;99.90;;;;;;5092663;28;20048;-76
2023/04/15 10:36:48;;;;;;;0.57;0.52;;;9.60;99.90;;;;;;5116969;28;19903;-74
2023/04/15 10:39:32;;;;;;;0.50;0.50;;;9.60;99.90;;;;;;5096183;28;20500;-77
2023/04/15 10:42:18;;;;;;;0.63;0.63;;;9.40;99.90;;;;;;5080294;28;20035;-76
2023/04/15 10:44:58;;;;;;;0.80;0.80;;;8.90;99.90;;;;;;5116224;28;20564;-74
2023/04/15 10:47:31;;;;;;;0.55;0.55;;;8.70;99.90;;;;;;5076422;29;20610;-77
2023/04/15 10:50:03;;;;;;;0.43;0.43;;;8.30;99.90;;;;;;5092971;29;20035;-74
2023/04/15 10:52:41;;;;;;;0.50;0.50;;;8.00;99.90;;;;;;5097289;28;20081;-73
2023/04/15 10:55:22;;;;;;;0.50;0.50;;;8.00;99.90;;;;;;5114191;29;20020;-75
2023/04/15 10:57:59;;;;;;;0.50;0.50;;;8.00;99.90;;;;;;5126409;28;20054;-74
2023/04/15 11:00:39;;;;;;;0.52;0.52;;;8.20;99.90;;;;;;5082301;28;20066;-77
2023/04/15 11:03:20;;;;;;;0.77;0.77;;;8.50;99.90;;;;;;5102527;28;20035;-74
2023/04/15 11:05:52;;;;;;;0.70;0.70;;;8.80;99.90;;;;;;5136097;28;20045;-74
2023/04/15 11:08:54;;;;;;;0.60;0.60;;;9.10;99.90;;;;;;5168606;28;20048;-73
2023/04/15 11:12:05;;;;;;;0.50;0.50;;;9.40;99.90;;;;;;5176008;28;20044;-73
2023/04/15 11:14:42;;;;;;;0.77;0.77;;;10.10;99.90;;;;;;5135038;28;20034;-78
2023/04/15 11:17:13;;;;;;;0.80;0.80;;;10.00;99.90;;;;;;5149334;28;20034;-74
2023/04/15 11:19:44;;;;;;;1.30;1.08;;;10.00;99.90;;;;;;5152016;28;20039;-73
2023/04/15 11:22:17;;;;;;;0.60;0.60;;;9.70;99.90;;;;;;5132602;28;20034;-73
2023/04/15 11:24:50;;;;;;;0.80;0.80;;;10.10;99.90;;;;;;5150182;28;20357;-72
2023/04/15 11:27:24;;;;;;;0.70;0.70;;;11.00;99.90;;;;;;5151037;28;20030;-74
2023/04/15 11:29:56;;;;;;;0.65;0.65;;;10.90;99.90;;;;;;5119476;28;20440;-74
2023/04/15 11:32:27;;;;;;;0.47;0.47;;;10.50;99.90;;;;;;5131917;28;20053;-72
2023/04/15 11:35:01;;;;;;;0.85;0.85;;;10.30;99.90;;;;;;5151162;28;20334;-69
2023/04/15 11:37:32;;;;;;;0.60;0.60;;;10.60;99.90;;;;;;5133922;28;20050;-72
2023/04/15 11:40:05;;;;;;;369.95;167.63;;;10.70;99.90;;;;;;5118680;28;20046;-75
2023/04/15 11:42:40;;;;;;;787.08;555.95;;;10.40;90.60;;;;;;5133883;28;20026;-74
2023/04/15 11:45:14;;;;;;;213.23;173.68;;;9.80;99.90;;;;;;5132502;28;20038;-76
2023/04/15 11:47:45;;;;;;;687.72;588.03;;;9.30;99.90;;;;;;5148197;28;20038;-74
2023/04/15 11:50:21;;;;;;;144.77;130.85;;;9.30;99.90;;;;;;5166735;28;20204;-75
2023/04/15 11:53:01;;;;;;;7.47;6.88;;;9.50;99.90;;;;;;5186558;28;20028;-74
2023/04/15 11:55:52;;;;;;;1.85;1.75;;;10.20;99.90;;;;;;5183950;28;20017;-74
2023/04/15 11:58:25;;;;;;;0.63;0.63;;;11.00;99.90;;;;;;5202375;28;20049;-74
2023/04/15 12:01:01;;;;;;;0.80;0.80;;;11.10;33.70;;;;;;5183392;28;20033;-71
2023/04/15 12:03:43;;;;;;;0.60;0.60;;;10.50;1.00;;;;;;5179403;28;20037;-73
2023/04/15 12:06:19;;;;;;;0.88;0.88;;;9.80;99.90;;;;;;5165669;28;20064;-75
2023/04/15 12:09:08;;;;;;;34.65;29.35;;;9.40;99.90;;;;;;5172821;28;20049;-75
2023/04/15 12:11:44;;;;;;;5.32;4.90;;;8.80;99.90;;;;;;5204299;28;20044;-77
2023/04/15 12:14:19;;;;;;;0.80;0.80;;;8.70;99.90;;;;;;5191625;28;20029;-72
2023/04/15 12:16:58;;;;;;;0.80;0.80;;;8.80;99.90;;;;;;5187507;28;20038;-75
2023/04/15 12:19:35;;;;;;;0.40;0.40;;;9.10;99.90;;;;;;5169558;28;20506;-76
2023/04/15 12:22:14;;;;;;;0.98;0.93;;;9.50;99.90;;;;;;5171637;28;20051;-77
2023/04/15 12:24:55;;;;;;;0.70;0.70;;;9.70;99.90;;;;;;5157988;28;20366;-72
2023/04/15 12:27:27;;;;;;;0.70;0.70;;;9.80;99.90;;;;;;5191526;28;20025;-70
2023/04/15 12:30:05;;;;;;;1.23;1.08;;;10.30;99.90;;;;;;5180709;28;20037;-71
2023/04/15 12:32:42;;;;;;;1.83;1.73;;;10.60;99.90;;;;;;5186376;28;20041;-73
2023/04/15 12:35:14;;;;;;;;;;;11.00;99.90;;;;;;5172636;28;20014;-71
2023/04/15 12:37:45;;;;;;;0.80;0.80;;;10.80;1.00;;;;;;5188913;28;19905;-71
2023/04/15 12:40:19;;;;;;;0.77;0.77;;;10.50;1.00;;;;;;5191199;28;20045;-75
2023/04/15 12:42:54;;;;;;;0.60;0.60;;;10.50;1.00;;;;;;5159790;28;20045;-73
2023/04/15 12:45:30;;;;;;;7.32;5.63;;;11.10;1.00;;;;;;5192199;28;20670;-71
2023/04/15 12:48:04;;;;;;;1.73;1.63;;;11.50;1.00;;;;;;5193699;28;20025;-72
2023/04/15 12:50:35;;;;;;;1.15;1.15;;;11.10;1.00;;;;;;5175897;28;20407;-72
2023/04/15 12:53:11;;;;;;;0.93;0.93;;;11.20;1.00;;;;;;5191099;28;20036;-72
2023/04/15 12:55:42;;;;;;;0.70;0.70;;;11.10;99.90;;;;;;5171025;28;20063;-76
2023/04/15 12:58:19;;;;;;;0.77;0.77;;;11.10;99.90;;;;;;5191416;28;20037;-69
2023/04/15 13:01:00;;;;;;;1.00;1.00;;;11.00;99.90;;;;;;5162392;28;20033;-71
2023/04/15 13:03:31;;;;;;;1.80;1.67;;;11.20;99.90;;;;;;5186100;28;20076;-72
2023/04/15 13:06:03;;;;;;;0.88;0.88;;;11.60;99.90;;;;;;5176307;28;20047;-75
2023/04/15 13:08:37;;;;;;;0.65;0.65;;;11.60;99.90;;;;;;5182973;28;20030;-73
2023/04/15 13:11:09;;;;;;;0.70;0.70;;;11.70;99.90;;;;;;5167272;28;20037;-73
2023/04/15 13:13:40;;;;;;;0.65;0.65;;;11.70;1.00;;;;;;5214342;28;20029;-73
2023/04/15 13:16:14;;;;;;;1.85;0.90;;;12.10;1.00;;;;;;5191857;28;20040;-74
2023/04/15 13:18:45;;;;;;;1.00;1.00;;;12.60;1.00;;;;;;5153766;28;20045;-75
2023/04/15 13:21:18;;;;;;;8.25;6.88;;;12.80;1.00;;;;;;5186797;28;20036;-73
2023/04/15 13:23:50;;;;;;;0.75;0.75;;;13.30;1.00;;;;;;5169396;28;20041;-72
2023/04/15 13:26:21;;;;;;;2.42;2.22;;;12.80;1.00;;;;;;5186138;28;20227;-75
2023/04/15 13:28:55;;;;;;;6.60;6.00;;;12.70;1.00;;;;;;5184617;28;20033;-72
2023/04/15 13:31:26;;;;;;;2.30;2.20;;;13.20;99.90;;;;;;5143552;28;20044;-75
2023/04/15 13:33:57;;;;;;;0.82;0.82;;;14.50;1.00;;;;;;5201541;28;20028;-72